createdAt,value
2022-12-03T00:01:07.895Z,63.81
2022-12-03T00:03:35.852Z,64.17
2022-12-03T00:06:02.277Z,64.07
2022-12-03T00:08:28.568Z,64.10
2022-12-03T00:10:54.936Z,63.69
2022-12-03T00:13:21.271Z,63.87
2022-12-03T00:15:47.633Z,63.77
2022-12-03T00:18:13.992Z,64.10
2022-12-03T00:20:40.356Z,63.50
2022-12-03T00:23:06.701Z,63.64
2022-12-03T00:25:33.089Z,63.92
2022-12-03T00:27:59.506Z,64.01
2022-12-03T00:30:25.877Z,63.82
2022-12-03T00:32:52.199Z,63.98
2022-12-03T00:35:18.538Z,63.80
2022-12-03T00:37:44.925Z,64.02
2022-12-03T00:40:11.762Z,64.16
2022-12-03T00:42:38.119Z,63.87
2022-12-03T00:45:05.008Z,63.93
2022-12-03T00:47:31.517Z,64.14
2022-12-03T00:49:57.890Z,63.95
2022-12-03T00:52:24.291Z,63.80
2022-12-03T00:54:50.781Z,63.93
2022-12-03T00:57:17.293Z,63.77
2022-12-03T00:59:43.603Z,63.93
2022-12-03T01:02:10.041Z,64.12
2022-12-03T01:04:36.454Z,64.36
2022-12-03T01:07:02.821Z,64.21
2022-12-03T01:09:29.299Z,64.00
2022-12-03T01:11:55.630Z,64.16
2022-12-03T01:14:21.975Z,64.26
2022-12-03T01:16:48.791Z,64.58
2022-12-03T01:19:16.310Z,64.15
2022-12-03T01:21:44.556Z,64.19
2022-12-03T01:24:11.612Z,64.46
2022-12-03T01:26:38.228Z,64.35
2022-12-03T01:29:05.161Z,64.24
2022-12-03T01:31:50.155Z,64.21
2022-12-03T01:34:16.500Z,64.38
2022-12-03T01:36:42.930Z,64.48
2022-12-03T01:39:09.268Z,64.68
2022-12-03T01:41:36.325Z,64.66
2022-12-03T01:44:15.034Z,64.40
2022-12-03T01:46:41.976Z,64.16
2022-12-03T01:49:16.915Z,64.60
2022-12-03T01:51:43.435Z,64.26
2022-12-03T01:54:22.216Z,64.58
2022-12-03T01:56:49.144Z,64.14
2022-12-03T01:59:17.978Z,64.22
2022-12-03T02:01:44.460Z,64.05
2022-12-03T02:04:19.948Z,63.82
2022-12-03T02:06:46.382Z,64.26
2022-12-03T02:09:13.479Z,64.27
2022-12-03T02:11:46.942Z,64.53
2022-12-03T02:14:19.403Z,64.20
2022-12-03T02:16:46.476Z,64.40
2022-12-03T02:19:26.491Z,64.71
2022-12-03T02:22:04.055Z,64.77
2022-12-03T02:24:55.239Z,64.93
2022-12-03T02:27:22.598Z,64.46
2022-12-03T02:29:48.995Z,64.85
2022-12-03T02:32:15.379Z,64.81
2022-12-03T02:34:44.815Z,64.65
2022-12-03T02:37:19.145Z,65.22
2022-12-03T02:39:51.601Z,65.03
2022-12-03T02:42:37.062Z,64.44
2022-12-03T02:45:09.211Z,64.87
2022-12-03T02:47:49.572Z,65.27
2022-12-03T02:50:20.431Z,64.77
2022-12-03T02:52:55.712Z,65.03
2022-12-03T02:55:22.997Z,64.99
2022-12-03T02:57:50.879Z,64.74
2022-12-03T03:00:18.668Z,65.36
2022-12-03T03:02:46.721Z,65.42
2022-12-03T03:05:15.621Z,64.85
2022-12-03T03:07:42.576Z,65.12
2022-12-03T03:10:14.081Z,65.22
2022-12-03T03:12:41.031Z,65.36
2022-12-03T03:15:09.149Z,65.28
2022-12-03T03:17:35.870Z,65.40
2022-12-03T03:20:04.224Z,65.37
2022-12-03T03:22:38.847Z,65.03
2022-12-03T03:25:07.308Z,65.05
2022-12-03T03:27:34.030Z,64.97
2022-12-03T03:30:00.790Z,65.02
2022-12-03T03:32:28.637Z,65.06
2022-12-03T03:34:56.514Z,65.45
2022-12-03T03:37:23.671Z,65.30
2022-12-03T03:39:50.148Z,65.02
2022-12-03T03:42:17.013Z,64.69
2022-12-03T03:44:43.690Z,64.81
2022-12-03T03:47:10.339Z,65.12
2022-12-03T03:49:36.724Z,64.88
2022-12-03T03:52:03.537Z,65.06
2022-12-03T03:54:30.524Z,64.75
2022-12-03T03:56:57.276Z,64.66
2022-12-03T03:59:23.826Z,65.08
2022-12-03T04:01:50.150Z,65.03
2022-12-03T04:04:22.008Z,64.62
2022-12-03T04:06:48.796Z,65.12
2022-12-03T04:09:15.231Z,64.77
2022-12-03T04:12:00.236Z,64.82
2022-12-03T04:14:26.551Z,64.87
2022-12-03T04:16:52.957Z,64.71
2022-12-03T04:19:19.353Z,64.74
2022-12-03T04:22:04.078Z,64.45
2022-12-03T04:24:30.480Z,65.05
2022-12-03T04:27:15.518Z,64.76
2022-12-03T04:29:41.831Z,64.89
2022-12-03T04:32:26.651Z,64.90
2022-12-03T04:35:11.478Z,65.01
2022-12-03T04:37:37.915Z,64.94
2022-12-03T04:40:24.652Z,64.77
2022-12-03T04:42:51.016Z,64.89
2022-12-03T04:45:17.327Z,64.86
2022-12-03T04:47:43.707Z,64.63
2022-12-03T04:50:10.692Z,64.89
2022-12-03T04:52:37.011Z,65.15
2022-12-03T04:55:03.728Z,65.11
2022-12-03T04:57:30.031Z,64.81
2022-12-03T04:59:56.372Z,64.78
2022-12-03T05:02:22.724Z,65.03
2022-12-03T05:04:49.057Z,64.81
2022-12-03T05:07:15.366Z,65.29
2022-12-03T05:09:41.700Z,64.85
2022-12-03T05:12:08.015Z,65.02
2022-12-03T05:14:34.337Z,64.84
2022-12-03T05:17:00.883Z,64.87
2022-12-03T05:19:47.312Z,64.58
2022-12-03T05:22:13.733Z,64.57
2022-12-03T05:24:40.077Z,64.34
2022-12-03T05:27:06.410Z,64.84
2022-12-03T05:29:32.739Z,64.75
2022-12-03T05:31:59.054Z,64.77
2022-12-03T05:34:25.353Z,64.81
2022-12-03T05:36:51.677Z,64.56
2022-12-03T05:39:17.989Z,64.96
2022-12-03T05:42:02.762Z,64.82
2022-12-03T05:44:29.070Z,64.86
2022-12-03T05:46:55.393Z,64.58
2022-12-03T05:49:21.698Z,64.63
2022-12-03T05:54:23.299Z,64.53
2022-12-03T05:56:49.852Z,64.46
2022-12-03T05:59:16.378Z,64.55
2022-12-03T06:01:43.023Z,64.74
2022-12-03T06:04:09.497Z,64.27
2022-12-03T06:06:36.022Z,64.46
2022-12-03T06:09:02.632Z,64.35
2022-12-03T06:11:30.203Z,64.70
2022-12-03T06:13:56.612Z,64.38
2022-12-03T06:16:23.203Z,65.02
2022-12-03T06:18:49.777Z,65.11
2022-12-03T06:21:16.252Z,64.44
2022-12-03T06:23:44.928Z,65.09
2022-12-03T06:26:12.234Z,64.73
2022-12-03T06:28:38.752Z,65.12
2022-12-03T06:31:05.655Z,64.57
2022-12-03T06:33:32.141Z,65.05
2022-12-03T06:35:58.568Z,65.03
2022-12-03T06:38:25.057Z,64.46
2022-12-03T06:40:51.422Z,64.91
2022-12-03T06:43:17.841Z,65.33
2022-12-03T06:45:47.657Z,65.37
2022-12-03T06:48:15.124Z,64.97
2022-12-03T06:50:41.675Z,64.97
2022-12-03T06:53:08.237Z,64.82
2022-12-03T06:55:34.729Z,64.52
2022-12-03T06:58:01.177Z,64.58
2022-12-03T07:00:27.610Z,65.11
2022-12-03T07:02:54.169Z,65.08
2022-12-03T07:05:20.718Z,65.08
2022-12-03T07:07:52.241Z,65.05
2022-12-03T07:10:19.385Z,64.87
2022-12-03T07:12:45.962Z,64.72
2022-12-03T07:15:12.906Z,64.77
2022-12-03T07:17:39.638Z,65.09
2022-12-03T07:20:06.778Z,64.88
2022-12-03T07:22:33.528Z,64.73
2022-12-03T07:24:59.996Z,64.56
2022-12-03T07:27:26.576Z,65.13
2022-12-03T07:29:53.012Z,64.69
2022-12-03T07:32:19.479Z,64.81
2022-12-03T07:34:45.943Z,64.88
2022-12-03T07:37:12.475Z,65.00
2022-12-03T07:39:38.943Z,65.03
2022-12-03T07:42:05.496Z,65.23
2022-12-03T07:44:31.962Z,64.84
2022-12-03T07:46:58.666Z,64.88
2022-12-03T07:49:26.714Z,64.79
2022-12-03T07:51:56.935Z,65.48
2022-12-03T07:54:24.541Z,64.87
2022-12-03T07:56:51.107Z,64.97
2022-12-03T07:59:18.920Z,64.97
2022-12-03T08:01:46.095Z,65.43
2022-12-03T08:04:14.643Z,65.52
2022-12-03T08:06:41.785Z,65.13
2022-12-03T08:09:11.958Z,65.37
2022-12-03T08:11:42.367Z,65.16
2022-12-03T08:14:17.833Z,64.95
2022-12-03T08:16:46.126Z,65.74
2022-12-03T08:19:16.138Z,65.62
2022-12-03T08:21:43.650Z,65.54
2022-12-03T08:24:19.026Z,65.29
2022-12-03T08:26:47.210Z,65.43
2022-12-03T08:29:18.949Z,65.35
2022-12-03T08:31:52.213Z,65.04
2022-12-03T08:34:28.006Z,64.81
2022-12-03T08:37:05.902Z,64.87
2022-12-03T08:39:35.682Z,64.89
2022-12-03T08:42:32.080Z,64.79
2022-12-03T08:45:21.108Z,64.58
2022-12-03T08:47:47.619Z,65.01
2022-12-03T08:50:30.187Z,64.80
2022-12-03T08:53:07.983Z,64.90
2022-12-03T08:55:36.949Z,65.14
2022-12-03T08:58:16.473Z,65.00
2022-12-03T09:00:43.146Z,65.15
2022-12-03T09:03:16.049Z,65.21
2022-12-03T09:05:42.399Z,65.62
2022-12-03T09:08:08.978Z,64.82
2022-12-03T09:10:35.480Z,65.17
2022-12-03T09:13:02.044Z,65.06
2022-12-03T09:15:28.575Z,65.39
2022-12-03T09:17:55.125Z,65.19
2022-12-03T09:20:21.627Z,64.65
2022-12-03T09:22:48.177Z,65.02
2022-12-03T09:25:15.003Z,64.87
2022-12-03T09:27:41.543Z,64.75
2022-12-03T09:30:08.335Z,65.44
2022-12-03T09:32:34.999Z,64.89
2022-12-03T09:35:01.453Z,65.03
2022-12-03T09:37:27.984Z,65.36
2022-12-03T09:39:54.456Z,65.54
2022-12-03T09:42:21.085Z,65.10
2022-12-03T09:44:47.620Z,64.80
2022-12-03T09:47:14.238Z,65.29
2022-12-03T09:49:41.357Z,64.68
2022-12-03T09:52:08.676Z,64.73
2022-12-03T09:54:35.308Z,65.22
2022-12-03T09:57:04.180Z,65.31
2022-12-03T09:59:34.223Z,64.81
2022-12-03T10:02:01.745Z,65.30
2022-12-03T10:04:29.746Z,65.13
2022-12-03T10:06:58.300Z,64.97
2022-12-03T10:09:27.519Z,65.14
2022-12-03T10:11:56.403Z,65.00
2022-12-03T10:14:23.163Z,65.28
2022-12-03T10:16:50.007Z,65.11
2022-12-03T10:19:26.365Z,64.99
2022-12-03T10:21:52.999Z,64.61
2022-12-03T10:24:25.908Z,64.86
2022-12-03T10:26:54.019Z,64.83
2022-12-03T10:29:32.905Z,65.04
2022-12-03T10:32:11.727Z,64.62
2022-12-03T10:34:41.547Z,64.93
2022-12-03T10:37:13.093Z,65.22
2022-12-03T10:39:58.436Z,64.95
2022-12-03T10:42:29.705Z,65.08
2022-12-03T10:45:08.547Z,64.67
2022-12-03T10:47:35.140Z,64.73
2022-12-03T10:50:14.328Z,64.73
2022-12-03T10:52:40.924Z,65.03
2022-12-03T10:55:11.994Z,64.72
2022-12-03T10:57:45.014Z,64.72
2022-12-03T11:00:19.286Z,65.03
2022-12-03T11:02:51.714Z,64.59
2022-12-03T11:05:29.343Z,64.97
2022-12-03T11:07:56.964Z,64.65
2022-12-03T11:10:24.320Z,65.28
2022-12-03T11:13:29.641Z,65.34
2022-12-03T11:15:56.821Z,65.28
2022-12-03T11:18:38.505Z,65.10
2022-12-03T11:21:06.577Z,64.93
2022-12-03T11:23:45.222Z,65.01
2022-12-03T11:26:19.854Z,64.37
2022-12-03T11:28:46.668Z,64.79
2022-12-03T11:31:38.220Z,64.49
2022-12-03T11:34:20.240Z,64.90
2022-12-03T11:37:11.405Z,64.70
2022-12-03T11:39:55.517Z,65.04
2022-12-03T11:42:25.525Z,64.32
2022-12-03T11:45:04.117Z,64.62
2022-12-03T11:47:41.084Z,64.67
2022-12-03T11:50:24.539Z,64.50
2022-12-03T11:52:59.004Z,64.58
2022-12-03T11:55:31.192Z,64.58
2022-12-03T11:58:03.047Z,64.60
2022-12-03T12:00:29.644Z,64.72
2022-12-03T12:02:58.006Z,65.23
2022-12-03T12:05:28.112Z,65.29
2022-12-03T12:07:55.849Z,64.96
2022-12-03T12:10:43.496Z,65.50
2022-12-03T12:13:31.692Z,64.66
2022-12-03T12:15:59.101Z,64.63
2022-12-03T12:18:45.627Z,64.88
2022-12-03T12:21:40.827Z,64.95
2022-12-03T12:24:42.970Z,64.54
2022-12-03T12:27:17.267Z,64.55
2022-12-03T12:29:48.377Z,64.34
2022-12-03T12:32:17.540Z,64.45
2022-12-03T12:34:46.728Z,64.93
2022-12-03T12:37:47.217Z,64.71
2022-12-03T12:40:16.172Z,64.79
2022-12-03T12:42:52.979Z,64.51
2022-12-03T12:45:22.548Z,64.92
2022-12-03T12:48:14.820Z,64.17
2022-12-03T12:50:43.381Z,64.39
2022-12-03T12:53:18.537Z,64.30
2022-12-03T12:55:44.982Z,64.98
2022-12-03T12:58:19.765Z,64.50
2022-12-03T13:00:51.543Z,64.55
2022-12-03T13:03:20.023Z,64.71
2022-12-03T13:05:49.259Z,64.57
2022-12-03T13:08:20.702Z,64.11
2022-12-03T13:10:47.498Z,64.62
2022-12-03T13:13:23.099Z,64.46
2022-12-03T13:15:56.040Z,64.29
2022-12-03T13:18:27.222Z,64.01
2022-12-03T13:20:55.309Z,63.92
2022-12-03T13:23:30.210Z,63.67
2022-12-03T13:26:04.703Z,63.72
2022-12-03T13:28:34.348Z,64.08
2022-12-03T13:31:18.531Z,63.94
2022-12-03T13:33:44.987Z,63.97
2022-12-03T13:36:14.848Z,64.46
2022-12-03T13:38:41.508Z,63.95
2022-12-03T13:41:37.287Z,64.18
2022-12-03T13:44:13.344Z,64.12
2022-12-03T13:46:39.710Z,64.09
2022-12-03T13:49:34.324Z,64.23
2022-12-03T13:52:00.744Z,64.13
2022-12-03T13:54:31.153Z,63.95
2022-12-03T13:56:57.545Z,63.80
2022-12-03T13:59:26.284Z,64.21
2022-12-03T14:01:52.920Z,63.80
2022-12-03T14:04:19.246Z,64.08
2022-12-03T14:06:45.557Z,64.31
2022-12-03T14:09:11.941Z,64.20
2022-12-03T14:11:56.937Z,63.68
2022-12-03T14:14:23.267Z,64.25
2022-12-03T14:16:49.649Z,63.67
2022-12-03T14:19:16.026Z,63.99
2022-12-03T14:21:42.459Z,63.68
2022-12-03T14:24:08.837Z,63.86
2022-12-03T14:26:35.206Z,64.38
2022-12-03T14:29:07.200Z,64.41
2022-12-03T14:31:35.124Z,64.02
2022-12-03T14:34:01.502Z,63.70
2022-12-03T14:36:27.819Z,63.58
2022-12-03T14:38:54.134Z,63.83
2022-12-03T14:41:39.076Z,64.02
2022-12-03T14:44:05.427Z,64.00
2022-12-03T14:46:31.786Z,63.82
2022-12-03T14:48:58.148Z,63.88
2022-12-03T14:51:24.769Z,64.15
2022-12-03T14:53:51.116Z,63.89
2022-12-03T14:56:17.491Z,64.02
2022-12-03T14:58:43.868Z,63.77
2022-12-03T15:01:10.303Z,64.32
2022-12-03T15:03:36.718Z,63.61
2022-12-03T15:06:03.100Z,63.61
2022-12-03T15:08:29.473Z,63.72
2022-12-03T15:10:55.814Z,63.95
2022-12-03T15:13:22.261Z,63.65
2022-12-03T15:15:48.626Z,63.52
2022-12-03T15:18:14.958Z,63.59
2022-12-03T15:20:41.299Z,63.79
2022-12-03T15:23:12.735Z,63.29
2022-12-03T15:25:40.487Z,63.33
2022-12-03T15:28:07.135Z,63.11
2022-12-03T15:30:35.738Z,63.82
2022-12-03T15:33:03.320Z,63.49
2022-12-03T15:35:30.263Z,63.78
2022-12-03T15:37:56.775Z,63.82
2022-12-03T15:40:23.382Z,64.01
2022-12-03T15:42:49.692Z,63.61
2022-12-03T15:45:16.114Z,63.82
2022-12-03T15:47:42.457Z,64.01
2022-12-03T15:50:09.254Z,63.84
2022-12-03T15:52:35.613Z,63.56
2022-12-03T15:55:02.484Z,63.72
2022-12-03T15:57:29.516Z,63.97
2022-12-03T15:59:56.272Z,64.05
2022-12-03T16:02:23.010Z,63.31
2022-12-03T16:04:49.374Z,63.49
2022-12-03T16:07:15.667Z,63.87
2022-12-03T16:09:41.970Z,63.57
2022-12-03T16:12:08.277Z,63.63
2022-12-03T16:14:34.630Z,63.34
2022-12-03T16:17:01.004Z,63.44
2022-12-03T16:19:27.345Z,63.60
2022-12-03T16:21:53.667Z,63.51
2022-12-03T16:24:20.004Z,63.69
2022-12-03T16:26:46.379Z,64.01
2022-12-03T16:29:12.730Z,63.56
2022-12-03T16:31:39.149Z,63.88
2022-12-03T16:34:05.556Z,63.96
2022-12-03T16:36:31.901Z,64.07
2022-12-03T16:38:58.219Z,63.87
2022-12-03T16:41:24.668Z,63.48
2022-12-03T16:43:51.211Z,63.54
2022-12-03T16:46:17.617Z,63.43
2022-12-03T16:48:44.009Z,63.39
2022-12-03T16:51:10.968Z,63.70
2022-12-03T16:53:37.328Z,63.71
2022-12-03T16:56:03.874Z,63.26
2022-12-03T16:58:30.309Z,63.77
2022-12-03T17:00:56.725Z,64.09
2022-12-03T17:03:23.277Z,63.27
2022-12-03T17:05:49.876Z,63.21
2022-12-03T17:08:16.983Z,63.29
2022-12-03T17:10:44.147Z,63.19
2022-12-03T17:13:11.000Z,63.34
2022-12-03T17:15:38.443Z,63.89
2022-12-03T17:18:05.424Z,63.77
2022-12-03T17:20:33.294Z,63.67
2022-12-03T17:23:00.089Z,63.41
2022-12-03T17:25:27.213Z,63.30
2022-12-03T17:27:53.707Z,63.50
2022-12-03T17:30:20.154Z,63.97
2022-12-03T17:32:46.564Z,63.40
2022-12-03T17:35:12.927Z,63.15
2022-12-03T17:37:39.311Z,63.82
2022-12-03T17:40:07.809Z,63.55
2022-12-03T17:42:34.170Z,63.34
2022-12-03T17:45:00.563Z,63.16
2022-12-03T17:47:26.930Z,63.93
2022-12-03T17:49:53.685Z,63.27
2022-12-03T17:52:20.324Z,63.26
2022-12-03T17:57:28.404Z,63.49
2022-12-03T17:59:55.208Z,63.72
2022-12-03T18:02:21.997Z,63.54
2022-12-03T18:04:48.626Z,63.88
2022-12-03T18:07:15.076Z,63.80
2022-12-03T18:09:42.203Z,63.86
2022-12-03T18:12:08.708Z,63.44
2022-12-03T18:14:35.259Z,63.35
2022-12-03T18:17:01.807Z,63.62
2022-12-03T18:19:28.231Z,63.53
2022-12-03T18:21:55.165Z,63.77
2022-12-03T18:24:22.304Z,63.77
2022-12-03T18:26:48.875Z,63.58
2022-12-03T18:29:15.274Z,63.38
2022-12-03T18:31:41.787Z,63.51
2022-12-03T18:34:08.323Z,63.46
2022-12-03T18:36:36.455Z,63.68
2022-12-03T18:39:05.999Z,63.40
2022-12-03T18:41:33.499Z,63.49
2022-12-03T18:44:03.633Z,63.66
2022-12-03T18:46:52.303Z,63.43
2022-12-03T18:49:17.699Z,63.70
2022-12-03T18:51:44.165Z,63.44
2022-12-03T18:54:14.062Z,63.42
2022-12-03T18:56:41.895Z,63.55
2022-12-03T18:59:09.096Z,63.78
2022-12-03T19:01:35.757Z,64.20
2022-12-03T19:04:02.626Z,63.73
2022-12-03T19:06:30.442Z,63.91
2022-12-03T19:08:57.165Z,63.83
2022-12-03T19:11:23.665Z,63.50
2022-12-03T19:13:50.343Z,63.71
2022-12-03T19:16:17.278Z,63.80
2022-12-03T19:18:44.303Z,63.72
2022-12-03T19:21:14.827Z,62.97
2022-12-03T19:23:47.343Z,63.68
2022-12-03T19:26:25.690Z,63.30
2022-12-03T19:28:53.599Z,63.31
2022-12-03T19:31:20.692Z,64.09
2022-12-03T19:33:47.508Z,63.70
2022-12-03T19:36:32.318Z,63.70
2022-12-03T19:38:59.879Z,63.54
2022-12-03T19:41:30.468Z,63.50
2022-12-03T19:43:57.890Z,63.62
2022-12-03T19:46:28.668Z,64.26
2022-12-03T19:48:55.175Z,63.86
2022-12-03T19:51:36.990Z,63.83
2022-12-03T19:54:08.148Z,63.51
2022-12-03T19:56:35.150Z,63.55
2022-12-03T19:59:02.288Z,63.44
2022-12-03T20:01:31.649Z,63.73
2022-12-03T20:04:00.867Z,63.59
2022-12-03T20:06:30.297Z,63.64
2022-12-03T20:09:06.424Z,63.44
2022-12-03T20:11:33.985Z,63.05
2022-12-03T20:14:09.457Z,63.65
2022-12-03T20:16:36.398Z,63.67
2022-12-03T20:19:05.124Z,63.59
2022-12-03T20:21:34.145Z,63.57
2022-12-03T20:24:00.950Z,63.83
2022-12-03T20:26:28.335Z,63.50
2022-12-03T20:28:56.265Z,63.75
2022-12-03T20:31:25.231Z,63.71
2022-12-03T20:33:55.051Z,63.61
2022-12-03T20:36:22.832Z,64.17
2022-12-03T20:38:53.819Z,63.85
2022-12-03T20:41:20.973Z,63.54
2022-12-03T20:43:47.851Z,63.96
2022-12-03T20:46:17.320Z,63.52
2022-12-03T20:48:45.200Z,63.25
2022-12-03T20:51:14.692Z,63.48
2022-12-03T20:53:42.101Z,63.82
2022-12-03T20:56:09.146Z,63.34
2022-12-03T20:58:35.992Z,63.69
2022-12-03T21:01:16.421Z,63.85
2022-12-03T21:03:44.089Z,63.72
2022-12-03T21:06:11.735Z,63.94
2022-12-03T21:08:41.866Z,63.75
2022-12-03T21:11:15.156Z,64.25
2022-12-03T21:13:43.411Z,63.93
2022-12-03T21:16:15.820Z,63.50
2022-12-03T21:18:42.885Z,64.35
2022-12-03T21:21:13.047Z,64.16
2022-12-03T21:23:39.994Z,64.23
2022-12-03T21:26:12.896Z,64.03
2022-12-03T21:28:40.522Z,64.47
2022-12-03T21:31:10.971Z,63.80
2022-12-03T21:33:38.338Z,63.52
2022-12-03T21:36:05.788Z,64.14
2022-12-03T21:38:33.299Z,63.49
2022-12-03T21:41:00.667Z,63.68
2022-12-03T21:43:27.559Z,63.81
2022-12-03T21:45:54.295Z,63.76
2022-12-03T21:48:21.651Z,64.00
2022-12-03T21:51:18.104Z,64.65
2022-12-03T21:53:45.786Z,63.78
2022-12-03T21:56:14.727Z,64.15
2022-12-03T21:58:41.583Z,63.64
2022-12-03T22:01:26.439Z,63.93
2022-12-03T22:03:53.051Z,63.88
2022-12-03T22:06:20.071Z,63.96
2022-12-03T22:08:46.859Z,64.17
2022-12-03T22:11:19.487Z,64.33
2022-12-03T22:13:46.493Z,64.45
2022-12-03T22:16:15.800Z,64.05
2022-12-03T22:18:42.804Z,64.26
2022-12-03T22:21:12.238Z,63.84
2022-12-03T22:23:39.533Z,64.15
2022-12-03T22:26:08.888Z,64.05
2022-12-03T22:28:35.819Z,64.09
2022-12-03T22:31:09.775Z,64.21
2022-12-03T22:33:37.345Z,64.08
2022-12-03T22:36:07.166Z,64.56
2022-12-03T22:38:34.284Z,64.31
2022-12-03T22:41:07.838Z,64.09
2022-12-03T22:43:37.099Z,64.22
2022-12-03T22:46:04.834Z,64.22
2022-12-03T22:48:34.265Z,64.36
2022-12-03T22:51:00.856Z,64.52
2022-12-03T22:53:27.475Z,64.35
2022-12-03T22:55:59.432Z,64.29
2022-12-03T22:58:26.915Z,64.03
2022-12-03T23:00:57.409Z,64.59
2022-12-03T23:03:29.119Z,64.18
2022-12-03T23:05:55.581Z,63.91
2022-12-03T23:08:22.407Z,64.51
2022-12-03T23:10:53.068Z,64.63
2022-12-03T23:13:20.080Z,64.39
2022-12-03T23:15:48.207Z,64.51
2022-12-03T23:18:15.016Z,64.52
2022-12-03T23:20:47.192Z,63.96
2022-12-03T23:23:14.698Z,64.02
2022-12-03T23:25:41.746Z,64.14
2022-12-03T23:28:08.861Z,64.20
2022-12-03T23:30:37.116Z,64.12
2022-12-03T23:33:05.308Z,64.31
2022-12-03T23:35:32.541Z,64.29
2022-12-03T23:37:59.000Z,64.22
2022-12-03T23:40:25.533Z,64.65
2022-12-03T23:42:52.005Z,64.38
2022-12-03T23:45:18.588Z,64.41
2022-12-03T23:47:44.996Z,63.82
2022-12-03T23:50:12.040Z,64.08
2022-12-03T23:52:38.492Z,64.35
2022-12-03T23:57:34.946Z,64.14
